createdAt,value
2018-12-16T00:02:02.555Z,17.87
2018-12-16T00:04:32.312Z,19.20
2018-12-16T00:07:02.023Z,19.67
2018-12-16T00:09:31.857Z,19.87
2018-12-16T00:12:02.159Z,22.20
2018-12-16T00:14:34.093Z,22.07
2018-12-16T00:17:03.954Z,19.50
2018-12-16T00:19:36.807Z,21.30
2018-12-16T00:22:05.979Z,19.67
2018-12-16T00:24:33.537Z,18.40
2018-12-16T00:27:11.545Z,18.53
2018-12-16T00:29:41.209Z,18.23
2018-12-16T00:32:10.917Z,19.07
2018-12-16T00:34:40.741Z,17.53
2018-12-16T00:37:10.548Z,17.63
2018-12-16T00:39:42.491Z,18.10
2018-12-16T00:42:12.459Z,18.10
2018-12-16T00:44:46.263Z,18.20
2018-12-16T00:47:16.013Z,18.93
2018-12-16T00:49:47.988Z,17.80
2018-12-16T00:52:16.598Z,18.63
2018-12-16T00:54:46.453Z,19.27
2018-12-16T00:57:19.835Z,18.80
2018-12-16T00:59:52.788Z,18.30
2018-12-16T01:02:40.340Z,19.03
2018-12-16T01:05:10.159Z,16.73
2018-12-16T01:07:40.406Z,18.03
2018-12-16T01:10:11.011Z,19.07
2018-12-16T01:12:40.659Z,18.80
2018-12-16T01:15:10.335Z,19.13
2018-12-16T01:17:40.297Z,19.53
2018-12-16T01:20:13.075Z,20.60
2018-12-16T01:22:43.784Z,18.47
2018-12-16T01:25:13.023Z,20.07
2018-12-16T01:27:42.901Z,20.67
2018-12-16T01:30:14.974Z,18.03
2018-12-16T01:32:42.431Z,19.07
2018-12-16T01:35:13.955Z,19.27
2018-12-16T01:37:41.779Z,20.47
2018-12-16T01:40:11.688Z,18.20
2018-12-16T01:42:41.313Z,20.00
2018-12-16T01:45:11.357Z,20.03
2018-12-16T01:47:40.997Z,19.23
2018-12-16T01:50:11.048Z,18.60
2018-12-16T01:52:40.859Z,19.70
2018-12-16T01:55:10.772Z,23.20
2018-12-16T01:57:40.677Z,20.50
2018-12-16T02:00:11.877Z,18.93
2018-12-16T02:02:41.579Z,19.27
2018-12-16T02:05:11.307Z,18.70
2018-12-16T02:07:41.019Z,18.97
2018-12-16T02:10:13.383Z,19.70
2018-12-16T02:12:40.464Z,18.37
2018-12-16T02:15:10.195Z,18.50
2018-12-16T02:17:40.009Z,20.03
2018-12-16T02:20:09.719Z,19.23
2018-12-16T02:22:39.495Z,18.27
2018-12-16T02:25:09.647Z,18.20
2018-12-16T02:27:39.873Z,20.60
2018-12-16T02:30:28.648Z,22.33
2018-12-16T02:33:03.644Z,21.30
2018-12-16T02:35:36.331Z,21.00
2018-12-16T02:38:06.007Z,18.13
2018-12-16T02:40:36.071Z,19.33
2018-12-16T02:43:05.892Z,18.20
2018-12-16T02:45:35.759Z,18.93
2018-12-16T02:48:08.207Z,20.23
2018-12-16T02:50:35.293Z,17.53
2018-12-16T02:53:05.669Z,19.33
2018-12-16T02:55:35.351Z,19.50
2018-12-16T02:58:05.030Z,19.40
2018-12-16T03:00:34.803Z,18.77
2018-12-16T03:03:04.545Z,18.50
2018-12-16T03:05:34.883Z,18.43
2018-12-16T03:08:04.579Z,19.17
2018-12-16T03:10:37.289Z,21.40
2018-12-16T03:13:06.981Z,22.70
2018-12-16T03:15:36.836Z,20.63
2018-12-16T03:18:06.672Z,19.50
2018-12-16T03:20:36.770Z,20.03
2018-12-16T03:23:12.159Z,19.30
2018-12-16T03:25:36.511Z,20.57
2018-12-16T03:28:06.117Z,19.50
2018-12-16T03:30:35.791Z,20.67
2018-12-16T03:33:05.671Z,20.23
2018-12-16T03:35:35.235Z,19.87
2018-12-16T03:38:04.913Z,20.23
2018-12-16T03:40:35.141Z,22.03
2018-12-16T03:43:04.760Z,22.27
2018-12-16T03:45:34.503Z,20.37
2018-12-16T03:48:04.016Z,21.43
2018-12-16T03:50:34.069Z,19.87
2018-12-16T03:53:03.657Z,21.23
2018-12-16T03:55:33.481Z,19.57
2018-12-16T03:58:03.413Z,20.33
2018-12-16T04:00:33.317Z,21.03
2018-12-16T04:03:03.309Z,20.43
2018-12-16T04:05:33.164Z,20.83
2018-12-16T04:08:06.434Z,20.03
2018-12-16T04:10:33.143Z,20.33
2018-12-16T04:13:02.774Z,20.40
2018-12-16T04:15:35.231Z,20.43
2018-12-16T04:18:05.135Z,21.10
2018-12-16T04:20:37.835Z,24.57
2018-12-16T04:23:09.745Z,22.83
2018-12-16T04:25:37.427Z,21.40
2018-12-16T04:28:07.504Z,19.83
2018-12-16T04:30:37.661Z,20.33
2018-12-16T04:33:07.329Z,19.83
2018-12-16T04:35:40.246Z,19.77
2018-12-16T04:38:13.127Z,21.50
2018-12-16T04:40:43.019Z,22.30
2018-12-16T04:43:18.559Z,22.10
2018-12-16T04:45:48.801Z,20.60
2018-12-16T04:48:18.511Z,20.93
2018-12-16T04:50:48.424Z,21.03
2018-12-16T04:53:18.666Z,20.43
2018-12-16T04:55:48.543Z,20.73
2018-12-16T04:58:18.601Z,20.67
2018-12-16T05:00:48.822Z,20.27
2018-12-16T05:03:18.681Z,20.30
2018-12-16T05:05:51.615Z,21.07
2018-12-16T05:08:24.347Z,20.13
2018-12-16T05:10:56.161Z,20.00
2018-12-16T05:13:28.715Z,19.43
2018-12-16T05:15:58.849Z,21.27
2018-12-16T05:18:31.543Z,21.73
2018-12-16T05:21:01.763Z,20.83
2018-12-16T05:23:31.678Z,22.00
2018-12-16T05:26:01.551Z,19.83
2018-12-16T05:28:33.351Z,19.70
2018-12-16T05:31:05.997Z,20.77
2018-12-16T05:33:37.956Z,19.60
2018-12-16T05:36:08.162Z,20.67
2018-12-16T05:38:40.731Z,21.20
2018-12-16T05:41:13.627Z,21.23
2018-12-16T05:43:43.421Z,21.37
2018-12-16T05:46:13.967Z,19.73
2018-12-16T05:48:46.598Z,20.57
2018-12-16T05:51:13.829Z,20.50
2018-12-16T05:53:48.959Z,20.10
2018-12-16T05:56:16.842Z,20.37
2018-12-16T05:58:47.024Z,20.07
2018-12-16T06:01:16.642Z,20.03
2018-12-16T06:03:47.052Z,21.37
2018-12-16T06:06:20.061Z,19.90
2018-12-16T06:08:50.027Z,19.60
2018-12-16T06:11:19.944Z,20.33
2018-12-16T06:13:51.802Z,19.97
2018-12-16T06:16:24.229Z,18.30
2018-12-16T06:18:53.987Z,19.53
2018-12-16T06:21:26.671Z,20.00
2018-12-16T06:23:56.507Z,20.67
2018-12-16T06:26:29.005Z,19.37
2018-12-16T06:29:00.925Z,18.70
2018-12-16T06:31:32.997Z,18.83
2018-12-16T06:34:03.077Z,19.37
2018-12-16T06:36:33.328Z,17.77
2018-12-16T06:39:04.347Z,20.00
2018-12-16T06:41:34.533Z,18.27
2018-12-16T06:44:04.331Z,19.03
2018-12-16T06:46:34.525Z,19.17
2018-12-16T06:49:04.768Z,20.03
2018-12-16T06:51:34.863Z,18.07
2018-12-16T06:54:06.990Z,18.87
2018-12-16T06:56:37.162Z,19.90
2018-12-16T06:59:07.323Z,18.00
2018-12-16T07:07:19.153Z,18.10
2018-12-16T07:09:48.454Z,17.40
2018-12-16T07:12:17.755Z,16.93
2018-12-16T07:14:47.066Z,17.43
2018-12-16T07:19:45.706Z,17.77
2018-12-16T07:22:14.962Z,17.63
2018-12-16T07:24:44.268Z,19.40
2018-12-16T07:27:16.060Z,18.83
2018-12-16T07:29:45.431Z,18.93
2018-12-16T07:32:14.823Z,20.00
2018-12-16T07:34:44.059Z,18.63
2018-12-16T07:37:19.051Z,18.87
2018-12-16T07:39:42.717Z,19.03
2018-12-16T07:42:12.108Z,17.50
2018-12-16T07:44:41.391Z,19.93
2018-12-16T07:47:10.682Z,18.33
2018-12-16T07:49:40.123Z,18.43
2018-12-16T07:52:09.492Z,19.37
2018-12-16T07:54:38.899Z,19.73
2018-12-16T07:57:08.233Z,20.43
2018-12-16T07:59:37.630Z,19.20
2018-12-16T08:02:07.010Z,20.13
2018-12-16T08:04:36.362Z,22.23
2018-12-16T08:07:05.659Z,21.40
2018-12-16T08:09:35.042Z,19.80
2018-12-16T08:12:04.565Z,22.73
2018-12-16T08:14:33.864Z,18.77
2018-12-16T08:17:03.172Z,19.60
2018-12-16T08:19:32.555Z,16.97
2018-12-16T08:22:01.866Z,18.87
2018-12-16T08:24:31.145Z,19.27
2018-12-16T08:27:00.580Z,19.00
2018-12-16T08:29:29.882Z,17.70
2018-12-16T08:31:59.542Z,17.43
2018-12-16T08:34:28.847Z,17.40
2018-12-16T08:36:58.186Z,18.70
2018-12-16T08:39:27.499Z,19.63
2018-12-16T08:41:56.928Z,19.80
2018-12-16T08:44:26.290Z,19.27
2018-12-16T08:46:55.541Z,22.17
2018-12-16T08:49:24.897Z,22.53
2018-12-16T08:51:54.429Z,18.80
2018-12-16T08:54:29.932Z,18.17
2018-12-16T08:56:53.469Z,17.30
2018-12-16T08:59:23.045Z,18.30
2018-12-16T09:01:52.303Z,17.17
2018-12-16T09:04:21.689Z,18.10
2018-12-16T09:06:51.034Z,17.23
2018-12-16T09:09:20.393Z,19.63
2018-12-16T09:11:49.684Z,17.80
2018-12-16T09:14:19.038Z,17.50
2018-12-16T09:16:48.370Z,17.80
2018-12-16T09:19:17.638Z,17.30
2018-12-16T09:21:46.948Z,16.53
2018-12-16T09:24:16.249Z,17.63
2018-12-16T09:26:45.500Z,17.70
2018-12-16T09:29:14.818Z,17.83
2018-12-16T09:31:44.233Z,17.13
2018-12-16T09:34:13.654Z,23.37
2018-12-16T09:36:42.894Z,24.03
2018-12-16T09:39:12.227Z,17.60
2018-12-16T09:41:41.537Z,16.83
2018-12-16T09:44:10.844Z,16.77
2018-12-16T09:46:40.144Z,16.37
2018-12-16T09:49:09.489Z,15.70
2018-12-16T09:51:38.791Z,15.90
2018-12-16T09:54:08.134Z,16.33
2018-12-16T09:56:37.468Z,15.13
2018-12-16T09:59:06.951Z,16.00
2018-12-16T10:01:36.251Z,15.93
2018-12-16T10:04:05.658Z,16.83
2018-12-16T10:06:35.033Z,16.27
2018-12-16T10:09:06.254Z,16.57
2018-12-16T10:11:35.581Z,16.30
2018-12-16T10:14:05.087Z,15.53
2018-12-16T10:16:34.410Z,18.70
2018-12-16T10:19:03.731Z,23.13
2018-12-16T10:21:33.105Z,21.33
2018-12-16T10:24:02.421Z,16.73
2018-12-16T10:26:31.797Z,16.57
2018-12-16T10:29:01.225Z,15.57
2018-12-16T10:31:32.123Z,15.77
2018-12-16T10:33:59.864Z,16.73
2018-12-16T10:36:29.223Z,15.57
2018-12-16T10:38:58.533Z,15.70
2018-12-16T10:41:27.827Z,15.73
2018-12-16T10:43:57.185Z,15.67
2018-12-16T10:46:26.525Z,16.13
2018-12-16T10:48:55.922Z,16.33
2018-12-16T10:51:25.245Z,16.10
2018-12-16T10:53:54.571Z,15.97
2018-12-16T10:56:23.871Z,15.27
2018-12-16T10:58:53.270Z,15.47
2018-12-16T11:01:28.608Z,15.77
2018-12-16T11:03:58.264Z,15.50
2018-12-16T11:06:27.582Z,15.67
2018-12-16T11:08:56.913Z,14.87
2018-12-16T11:11:26.195Z,15.17
2018-12-16T11:13:55.661Z,15.13
2018-12-16T11:16:24.943Z,13.97
2018-12-16T11:18:54.280Z,14.20
2018-12-16T11:21:23.712Z,14.77
2018-12-16T11:23:53.980Z,14.27
2018-12-16T11:26:22.366Z,16.20
2018-12-16T11:28:51.670Z,13.73
2018-12-16T11:31:21.004Z,14.33
2018-12-16T11:33:50.440Z,11.20
2018-12-16T11:36:19.799Z,17.73
2018-12-16T11:38:49.197Z,15.50
2018-12-16T11:41:18.640Z,13.60
2018-12-16T11:43:48.282Z,13.93
2018-12-16T11:46:17.562Z,13.00
2018-12-16T11:48:46.958Z,12.03
2018-12-16T11:51:16.353Z,12.40
2018-12-16T11:53:45.687Z,14.93
2018-12-16T11:56:17.295Z,13.00
2018-12-16T11:58:46.593Z,13.40
2018-12-16T12:01:15.886Z,13.47
2018-12-16T12:03:45.206Z,12.77
2018-12-16T12:06:14.525Z,13.87
2018-12-16T12:08:43.827Z,13.67
2018-12-16T12:11:13.360Z,13.33
2018-12-16T12:13:42.662Z,13.20
2018-12-16T12:16:12.028Z,12.60
2018-12-16T12:18:41.410Z,12.93
2018-12-16T12:21:10.730Z,13.40
2018-12-16T12:23:40.044Z,13.23
2018-12-16T12:26:09.358Z,12.87
2018-12-16T12:28:38.932Z,12.93
2018-12-16T12:31:08.291Z,13.30
2018-12-16T12:33:37.610Z,13.10
2018-12-16T12:36:06.896Z,13.90
2018-12-16T12:38:36.206Z,12.97
2018-12-16T12:41:05.658Z,13.90
2018-12-16T12:43:34.967Z,13.53
2018-12-16T12:46:04.269Z,12.87
2018-12-16T12:48:33.593Z,12.20
2018-12-16T12:51:21.372Z,12.97
2018-12-16T12:53:50.908Z,13.47
2018-12-16T12:56:20.154Z,13.73
2018-12-16T12:58:49.453Z,14.00
2018-12-16T13:01:18.779Z,13.90
2018-12-16T13:03:48.068Z,13.90
2018-12-16T13:06:17.771Z,13.90
2018-12-16T13:08:47.086Z,14.23
2018-12-16T13:11:16.376Z,12.70
2018-12-16T13:13:45.776Z,12.83
2018-12-16T13:16:15.119Z,14.97
2018-12-16T13:18:44.397Z,14.33
2018-12-16T13:21:14.034Z,13.60
2018-12-16T13:23:43.435Z,14.37
2018-12-16T13:26:12.718Z,14.07
2018-12-16T13:28:42.143Z,14.90
2018-12-16T13:31:11.532Z,14.23
2018-12-16T13:33:41.212Z,14.30
2018-12-16T13:36:11.160Z,13.63
2018-12-16T13:38:40.602Z,14.30
2018-12-16T13:41:10.016Z,13.20
2018-12-16T13:43:39.389Z,14.30
2018-12-16T13:46:08.680Z,13.77
2018-12-16T13:48:38.443Z,13.87
2018-12-16T13:51:07.803Z,14.70
2018-12-16T13:53:39.710Z,14.33
2018-12-16T13:56:09.072Z,13.77
2018-12-16T13:58:38.466Z,14.77
2018-12-16T14:01:07.881Z,13.97
2018-12-16T14:03:37.285Z,14.43
2018-12-16T14:06:08.958Z,15.43
2018-12-16T14:08:38.259Z,14.13
2018-12-16T14:11:07.632Z,13.80
2018-12-16T14:13:37.012Z,13.77
2018-12-16T14:16:11.048Z,13.37
2018-12-16T14:18:43.366Z,13.20
2018-12-16T14:21:12.716Z,13.53
2018-12-16T14:23:41.998Z,14.47
2018-12-16T14:26:11.798Z,14.33
2018-12-16T14:28:41.087Z,13.60
2018-12-16T14:31:12.189Z,14.77
2018-12-16T14:33:41.479Z,14.57
2018-12-16T14:36:10.781Z,14.83
2018-12-16T14:38:40.511Z,14.23
2018-12-16T14:41:09.915Z,15.13
2018-12-16T14:43:39.249Z,13.87
2018-12-16T14:46:13.114Z,14.63
2018-12-16T14:48:42.593Z,15.97
2018-12-16T14:51:11.919Z,14.80
2018-12-16T14:53:41.204Z,14.93
2018-12-16T14:56:10.503Z,15.93
2018-12-16T14:58:39.796Z,14.87
2018-12-16T15:01:11.604Z,15.53
2018-12-16T15:03:40.960Z,14.70
2018-12-16T15:06:10.240Z,15.00
2018-12-16T15:08:39.615Z,15.40
2018-12-16T15:11:08.962Z,15.23
2018-12-16T15:13:42.384Z,16.17
2018-12-16T15:16:10.277Z,16.57
2018-12-16T15:18:38.993Z,15.90
2018-12-16T15:21:08.317Z,14.23
2018-12-16T15:23:39.798Z,15.67
2018-12-16T15:26:07.017Z,16.13
2018-12-16T15:28:36.311Z,14.40
2018-12-16T15:31:05.620Z,14.73
2018-12-16T15:33:34.890Z,15.97
2018-12-16T15:36:04.226Z,15.67
2018-12-16T15:38:33.530Z,15.57
2018-12-16T15:44:31.975Z,15.30
2018-12-16T15:47:01.229Z,14.93
2018-12-16T15:49:30.568Z,15.80
2018-12-16T15:51:59.840Z,15.80
2018-12-16T15:54:31.249Z,15.80
2018-12-16T15:57:00.532Z,16.53
2018-12-16T15:59:29.990Z,16.80
2018-12-16T16:01:59.318Z,17.27
2018-12-16T16:04:28.624Z,17.23
2018-12-16T16:06:57.949Z,17.23
2018-12-16T16:09:27.249Z,17.13
2018-12-16T16:11:56.598Z,17.00
2018-12-16T16:14:25.939Z,18.50
2018-12-16T16:16:55.328Z,16.83
2018-12-16T16:19:24.714Z,19.67
2018-12-16T16:21:54.084Z,17.77
2018-12-16T16:24:23.401Z,17.20
2018-12-16T16:26:52.712Z,17.63
2018-12-16T16:29:22.018Z,17.13
2018-12-16T16:31:51.378Z,17.93
2018-12-16T16:34:23.438Z,17.20
2018-12-16T16:36:52.759Z,18.30
2018-12-16T16:39:22.035Z,17.83
2018-12-16T16:41:51.440Z,17.30
2018-12-16T16:44:20.796Z,17.50
2018-12-16T16:46:50.113Z,17.87
2018-12-16T16:49:19.440Z,17.10
2018-12-16T16:51:48.781Z,17.03
2018-12-16T16:54:23.846Z,17.27
2018-12-16T16:56:53.163Z,17.77
2018-12-16T16:59:22.541Z,16.63
2018-12-16T17:01:51.812Z,18.10
2018-12-16T17:04:21.173Z,18.40
2018-12-16T17:06:50.548Z,16.60
2018-12-16T17:09:19.880Z,18.13
2018-12-16T17:11:49.201Z,18.07
2018-12-16T17:14:18.544Z,18.53
2018-12-16T17:16:47.855Z,17.03
2018-12-16T17:19:17.169Z,16.90
2018-12-16T17:21:46.486Z,16.73
2018-12-16T17:24:24.594Z,17.50
2018-12-16T17:26:53.965Z,15.83
2018-12-16T17:29:23.329Z,17.50
2018-12-16T17:31:52.756Z,17.67
2018-12-16T17:34:22.087Z,17.57
2018-12-16T17:36:52.055Z,17.80
2018-12-16T17:39:21.425Z,17.87
2018-12-16T17:41:50.712Z,18.53
2018-12-16T17:44:20.117Z,17.60
2018-12-16T17:46:49.403Z,17.50
2018-12-16T17:49:18.725Z,18.27
2018-12-16T17:51:48.100Z,18.03
2018-12-16T17:54:17.541Z,18.00
2018-12-16T17:56:46.911Z,18.87
2018-12-16T17:59:18.077Z,19.13
2018-12-16T18:01:45.592Z,17.90
2018-12-16T18:04:14.944Z,19.20
2018-12-16T18:06:44.273Z,19.27
2018-12-16T18:09:13.815Z,18.83
2018-12-16T18:11:43.224Z,18.97
2018-12-16T18:14:12.513Z,18.90
2018-12-16T18:16:41.899Z,18.80
2018-12-16T18:19:11.414Z,20.03
2018-12-16T18:21:43.153Z,18.70
2018-12-16T18:24:12.744Z,19.13
2018-12-16T18:26:44.200Z,19.87
2018-12-16T18:29:11.435Z,19.90
2018-12-16T18:31:40.816Z,18.47
2018-12-16T18:34:10.243Z,18.77
2018-12-16T18:36:39.781Z,18.67
2018-12-16T18:39:09.887Z,21.13
2018-12-16T18:41:39.276Z,20.93
2018-12-16T18:44:08.548Z,19.10
2018-12-16T18:46:37.872Z,19.20
2018-12-16T18:49:07.919Z,20.80
2018-12-16T18:51:36.547Z,22.07
2018-12-16T18:54:05.962Z,22.63
2018-12-16T18:56:35.355Z,21.83
2018-12-16T18:59:04.643Z,23.23
2018-12-16T19:01:33.980Z,21.90
2018-12-16T19:04:06.705Z,22.37
2018-12-16T19:06:39.112Z,21.93
2018-12-16T19:09:08.816Z,22.10
2018-12-16T19:11:38.144Z,22.80
2018-12-16T19:14:07.532Z,22.83
2018-12-16T19:16:37.018Z,21.87
2018-12-16T19:19:06.416Z,22.17
2018-12-16T19:21:38.448Z,21.70
2018-12-16T19:24:07.774Z,22.53
2018-12-16T19:26:37.124Z,21.43
2018-12-16T19:29:06.516Z,22.10
2018-12-16T19:31:35.980Z,22.23
2018-12-16T19:34:05.230Z,21.33
2018-12-16T19:36:34.547Z,21.73
2018-12-16T19:39:04.234Z,21.80
2018-12-16T19:41:33.642Z,22.37
2018-12-16T19:44:03.123Z,22.03
2018-12-16T19:46:32.479Z,22.10
2018-12-16T19:49:01.765Z,21.40
2018-12-16T19:51:31.174Z,22.00
2018-12-16T19:54:00.636Z,21.63
2018-12-16T19:56:30.071Z,23.13
2018-12-16T19:58:59.413Z,21.90
2018-12-16T20:01:29.071Z,22.83
2018-12-16T20:04:20.314Z,23.33
2018-12-16T20:06:49.726Z,21.20
2018-12-16T20:09:19.168Z,20.97
2018-12-16T20:11:48.552Z,24.00
2018-12-16T20:14:17.992Z,23.27
2018-12-16T20:16:47.448Z,23.13
2018-12-16T20:19:16.818Z,22.63
2018-12-16T20:21:46.213Z,23.60
2018-12-16T20:24:15.514Z,22.60
2018-12-16T20:26:44.844Z,24.20
2018-12-16T20:29:16.874Z,24.07
2018-12-16T20:31:45.824Z,23.07
2018-12-16T20:34:15.184Z,23.97
2018-12-16T20:36:44.513Z,24.60
2018-12-16T20:39:13.901Z,22.90
2018-12-16T20:41:43.254Z,24.67
2018-12-16T20:44:12.579Z,24.33
2018-12-16T20:46:41.930Z,25.17
2018-12-16T20:49:11.280Z,25.37
2018-12-16T20:51:40.594Z,24.50
2018-12-16T20:54:09.962Z,24.67
2018-12-16T20:56:39.392Z,22.90
2018-12-16T20:59:08.730Z,25.57
2018-12-16T21:01:38.112Z,22.83
2018-12-16T21:04:07.469Z,24.60
2018-12-16T21:06:36.817Z,24.43
2018-12-16T21:09:07.029Z,26.07
2018-12-16T21:11:54.195Z,24.10
2018-12-16T21:14:41.288Z,24.40
2018-12-16T21:17:28.676Z,24.07
2018-12-16T21:20:00.459Z,24.30
2018-12-16T21:22:29.786Z,24.33
2018-12-16T21:24:59.124Z,25.23
2018-12-16T21:27:28.428Z,24.90
2018-12-16T21:29:57.743Z,25.17
2018-12-16T21:32:27.049Z,25.63
2018-12-16T21:34:56.319Z,26.27
2018-12-16T21:37:25.880Z,26.83
2018-12-16T21:39:55.161Z,26.57
2018-12-16T21:42:24.470Z,26.20
2018-12-16T21:44:53.769Z,26.93
2018-12-16T21:47:23.061Z,26.67
2018-12-16T21:49:52.344Z,28.50
2018-12-16T21:52:21.711Z,26.93
2018-12-16T21:54:51.037Z,25.73
2018-12-16T21:57:20.369Z,26.53
2018-12-16T21:59:49.660Z,26.37
2018-12-16T22:02:19.080Z,28.43
2018-12-16T22:04:48.334Z,26.30
2018-12-16T22:07:17.642Z,27.00
2018-12-16T22:09:47.017Z,28.17
2018-12-16T22:12:16.367Z,28.40
2018-12-16T22:14:45.634Z,28.47
2018-12-16T22:17:15.040Z,28.37
2018-12-16T22:19:44.378Z,27.77
2018-12-16T22:22:13.763Z,26.33
2018-12-16T22:24:43.079Z,28.27
2018-12-16T22:27:12.457Z,26.67
2018-12-16T22:29:41.753Z,28.73
2018-12-16T22:32:11.046Z,27.83
2018-12-16T22:34:40.342Z,28.47
2018-12-16T22:37:09.629Z,28.27
2018-12-16T22:39:38.944Z,27.87
2018-12-16T22:42:08.237Z,27.00
2018-12-16T22:44:37.552Z,30.90
2018-12-16T22:47:06.814Z,29.37
2018-12-16T22:49:36.130Z,30.17
2018-12-16T22:52:05.460Z,30.67
2018-12-16T22:54:34.752Z,29.17
2018-12-16T22:57:04.148Z,30.17
2018-12-16T22:59:33.465Z,28.43
2018-12-16T23:02:02.794Z,30.47
2018-12-16T23:04:32.116Z,29.70
2018-12-16T23:07:01.388Z,29.93
2018-12-16T23:09:30.661Z,30.93
2018-12-16T23:11:59.939Z,29.57
2018-12-16T23:14:30.008Z,30.17
2018-12-16T23:16:59.304Z,29.67
2018-12-16T23:19:28.555Z,29.63
2018-12-16T23:21:57.856Z,29.47
2018-12-16T23:24:27.159Z,28.23
2018-12-16T23:26:56.557Z,30.60
2018-12-16T23:29:25.841Z,28.47
2018-12-16T23:31:55.105Z,28.80
2018-12-16T23:34:24.388Z,28.73
2018-12-16T23:36:53.669Z,28.63
2018-12-16T23:39:22.939Z,29.13
2018-12-16T23:41:52.242Z,29.27
2018-12-16T23:44:21.489Z,27.37
2018-12-16T23:46:50.859Z,28.30
2018-12-16T23:49:20.222Z,27.10
2018-12-16T23:51:49.503Z,27.67
2018-12-16T23:54:18.755Z,29.43
2018-12-16T23:56:48.148Z,27.23
2018-12-16T23:59:17.464Z,28.20
